createdAt,value
2022-12-16T00:01:31.021Z,47.32
2022-12-16T00:06:34.159Z,47.41
2022-12-16T00:11:36.157Z,47.42
2022-12-16T00:16:42.461Z,47.10
2022-12-16T00:21:44.260Z,47.19
2022-12-16T00:26:45.994Z,47.33
2022-12-16T00:31:48.257Z,47.49
2022-12-16T00:36:50.160Z,47.54
2022-12-16T00:41:52.427Z,47.74
2022-12-16T00:46:53.993Z,47.70
2022-12-16T00:51:56.854Z,47.70
2022-12-16T00:56:58.427Z,47.71
2022-12-16T01:02:00.340Z,47.60
2022-12-16T01:07:03.136Z,47.62
2022-12-16T01:12:06.055Z,47.53
2022-12-16T01:17:07.799Z,47.79
2022-12-16T01:22:09.446Z,47.91
2022-12-16T01:27:11.640Z,47.85
2022-12-16T01:32:13.977Z,47.99
2022-12-16T01:37:15.883Z,47.99
2022-12-16T01:42:20.655Z,48.04
2022-12-16T01:47:27.313Z,48.29
2022-12-16T01:52:37.529Z,48.38
2022-12-16T01:57:48.162Z,48.50
2022-12-16T02:02:51.523Z,48.77
2022-12-16T02:08:04.736Z,49.04
2022-12-16T02:13:12.353Z,49.20
2022-12-16T02:18:29.678Z,49.13
2022-12-16T02:23:56.171Z,49.30
2022-12-16T02:29:24.655Z,49.55
2022-12-16T02:34:49.999Z,49.30
2022-12-16T02:40:00.462Z,49.25
2022-12-16T02:45:13.284Z,49.20
2022-12-16T02:50:46.915Z,49.24
2022-12-16T02:56:13.723Z,49.39
2022-12-16T03:01:43.755Z,49.57
2022-12-16T03:06:50.168Z,49.54
2022-12-16T03:11:54.651Z,49.55
2022-12-16T03:16:57.371Z,49.65
2022-12-16T03:22:13.984Z,49.57
2022-12-16T03:27:25.046Z,49.40
2022-12-16T03:32:39.093Z,49.94
2022-12-16T03:37:42.989Z,50.00
2022-12-16T03:42:45.242Z,50.13
2022-12-16T03:47:53.706Z,50.19
2022-12-16T03:52:56.273Z,50.30
2022-12-16T03:57:58.233Z,50.33
2022-12-16T04:03:00.321Z,50.35
2022-12-16T04:08:02.567Z,49.91
2022-12-16T04:13:23.122Z,49.89
2022-12-16T04:18:43.632Z,49.98
2022-12-16T04:24:13.800Z,50.48
2022-12-16T04:29:15.555Z,50.61
2022-12-16T04:34:26.085Z,50.83
2022-12-16T04:39:46.319Z,51.05
2022-12-16T04:45:06.851Z,51.13
2022-12-16T04:50:27.856Z,50.82
2022-12-16T04:55:48.516Z,50.70
2022-12-16T05:01:09.666Z,51.00
2022-12-16T05:06:50.477Z,50.93
2022-12-16T05:12:11.857Z,50.75
2022-12-16T05:17:31.999Z,50.62
2022-12-16T05:22:52.546Z,50.85
2022-12-16T05:28:14.218Z,51.09
2022-12-16T05:33:35.134Z,50.98
2022-12-16T05:38:55.622Z,51.05
2022-12-16T05:44:16.107Z,51.15
2022-12-16T05:49:36.623Z,50.82
2022-12-16T05:54:56.863Z,50.58
2022-12-16T06:00:17.339Z,50.52
2022-12-16T06:05:38.055Z,50.58
2022-12-16T06:10:58.514Z,50.75
2022-12-16T06:16:19.124Z,50.37
2022-12-16T06:21:39.455Z,50.47
2022-12-16T06:27:00.033Z,50.56
2022-12-16T06:32:20.492Z,50.76
2022-12-16T06:37:40.989Z,50.63
2022-12-16T06:43:02.025Z,50.85
2022-12-16T06:48:22.618Z,50.82
2022-12-16T06:53:43.228Z,50.67
2022-12-16T06:59:03.870Z,50.53
2022-12-16T07:04:24.198Z,50.44
2022-12-16T07:09:44.703Z,50.16
2022-12-16T07:15:05.157Z,49.97
2022-12-16T07:20:26.219Z,49.79
2022-12-16T07:25:46.536Z,49.40
2022-12-16T07:31:06.976Z,49.45
2022-12-16T07:36:31.621Z,49.34
2022-12-16T07:41:56.577Z,49.63
2022-12-16T07:47:16.999Z,49.49
2022-12-16T07:52:37.528Z,49.57
2022-12-16T07:57:58.131Z,49.62
2022-12-16T08:03:18.685Z,49.34
2022-12-16T08:08:39.291Z,49.34
2022-12-16T08:13:59.764Z,48.85
2022-12-16T08:19:20.395Z,49.10
2022-12-16T08:24:40.880Z,48.81
2022-12-16T08:30:01.389Z,49.03
2022-12-16T08:35:22.667Z,49.03
2022-12-16T08:40:42.921Z,48.95
2022-12-16T08:46:03.618Z,49.11
2022-12-16T08:51:25.640Z,49.42
2022-12-16T08:56:46.258Z,49.74
2022-12-16T09:02:06.662Z,50.03
2022-12-16T09:07:27.042Z,49.79
2022-12-16T09:12:47.341Z,49.68
2022-12-16T09:18:25.135Z,49.46
2022-12-16T09:23:45.606Z,49.30
2022-12-16T09:29:06.127Z,49.25
2022-12-16T09:34:26.709Z,49.09
2022-12-16T09:39:47.232Z,49.30
2022-12-16T09:45:36.774Z,49.20
2022-12-16T09:51:00.359Z,49.10
2022-12-16T09:56:42.372Z,48.85
2022-12-16T10:02:03.336Z,48.77
2022-12-16T10:07:32.251Z,48.47
2022-12-16T10:13:15.444Z,48.59
2022-12-16T10:19:10.047Z,48.48
2022-12-16T10:24:58.858Z,48.14
2022-12-16T10:30:21.894Z,48.29
2022-12-16T10:35:47.972Z,48.01
2022-12-16T10:41:09.186Z,47.94
2022-12-16T10:46:37.660Z,47.66
2022-12-16T10:51:58.240Z,47.40
2022-12-16T10:58:13.401Z,47.25
2022-12-16T11:03:39.000Z,47.60
2022-12-16T11:08:59.883Z,47.48
2022-12-16T11:14:32.764Z,47.54
2022-12-16T11:19:53.253Z,47.06
2022-12-16T11:25:43.349Z,46.76
2022-12-16T11:31:12.548Z,46.76
2022-12-16T11:36:39.079Z,47.14
2022-12-16T11:42:12.101Z,46.97
2022-12-16T11:47:53.556Z,46.96
2022-12-16T11:53:16.080Z,46.60
2022-12-16T11:58:50.088Z,46.26
2022-12-16T12:04:11.496Z,46.35
2022-12-16T12:09:33.856Z,46.60
2022-12-16T12:15:01.928Z,46.67
2022-12-16T12:20:47.717Z,46.83
2022-12-16T12:26:42.826Z,47.29
2022-12-16T12:32:06.283Z,47.17
2022-12-16T12:37:47.051Z,47.19
2022-12-16T12:43:14.457Z,46.51
2022-12-16T12:48:43.291Z,46.18
2022-12-16T12:54:19.157Z,46.47
2022-12-16T13:00:01.738Z,46.60
2022-12-16T13:05:24.758Z,46.44
2022-12-16T13:10:53.363Z,46.47
2022-12-16T13:16:13.861Z,46.51
2022-12-16T13:21:57.030Z,46.25
2022-12-16T13:27:21.727Z,46.68
2022-12-16T13:32:46.466Z,46.97
2022-12-16T13:38:37.193Z,47.18
2022-12-16T13:44:11.503Z,46.86
2022-12-16T13:50:12.012Z,46.94
2022-12-16T13:55:37.431Z,47.08
2022-12-16T14:01:00.625Z,47.42
2022-12-16T14:06:25.047Z,47.19
2022-12-16T14:12:07.793Z,47.24
2022-12-16T14:17:40.009Z,47.19
2022-12-16T14:23:55.747Z,47.59
2022-12-16T14:29:16.275Z,47.59
2022-12-16T14:34:40.244Z,47.71
2022-12-16T14:40:00.762Z,47.96
2022-12-16T14:45:21.258Z,47.84
2022-12-16T14:50:48.115Z,47.71
2022-12-16T14:56:08.851Z,47.54
2022-12-16T15:01:43.390Z,47.62
2022-12-16T15:07:08.791Z,47.41
2022-12-16T15:12:34.099Z,47.60
2022-12-16T15:18:04.195Z,47.55
2022-12-16T15:23:35.227Z,47.58
2022-12-16T15:29:03.660Z,47.88
2022-12-16T15:35:07.110Z,47.87
2022-12-16T15:40:55.517Z,47.86
2022-12-16T15:46:16.378Z,48.15
2022-12-16T15:51:49.444Z,48.26
2022-12-16T15:57:09.823Z,48.22
2022-12-16T16:02:45.638Z,48.23
2022-12-16T16:08:06.361Z,48.18
2022-12-16T16:13:28.451Z,47.97
2022-12-16T16:18:48.555Z,47.95
2022-12-16T16:24:08.926Z,48.10
2022-12-16T16:29:31.786Z,48.11
2022-12-16T16:34:52.278Z,48.18
2022-12-16T16:40:12.702Z,48.35
2022-12-16T16:45:33.299Z,48.33
2022-12-16T16:50:53.741Z,48.23
2022-12-16T16:56:19.834Z,48.24
2022-12-16T17:01:40.654Z,48.10
2022-12-16T17:07:00.840Z,48.22
2022-12-16T17:12:33.293Z,48.14
2022-12-16T17:17:53.771Z,48.06
2022-12-16T17:23:15.215Z,47.79
2022-12-16T17:28:35.551Z,48.09
2022-12-16T17:33:56.182Z,47.81
2022-12-16T17:39:16.695Z,47.87
2022-12-16T17:44:37.756Z,47.91
2022-12-16T17:49:58.203Z,48.03
2022-12-16T17:55:19.094Z,48.17
2022-12-16T18:00:39.264Z,47.88
2022-12-16T18:05:59.722Z,47.92
2022-12-16T18:11:20.150Z,48.02
2022-12-16T18:16:40.783Z,48.24
2022-12-16T18:22:02.568Z,48.15
2022-12-16T18:27:23.308Z,47.99
2022-12-16T18:32:43.675Z,48.21
2022-12-16T18:38:04.037Z,48.06
2022-12-16T18:43:24.534Z,47.97
2022-12-16T18:48:45.433Z,48.18
2022-12-16T18:54:08.376Z,48.17
2022-12-16T18:59:28.672Z,48.21
2022-12-16T19:04:49.187Z,48.50
2022-12-16T19:10:09.297Z,48.47
2022-12-16T19:15:29.874Z,48.77
2022-12-16T19:20:50.563Z,49.04
2022-12-16T19:26:15.800Z,49.28
2022-12-16T19:31:36.313Z,49.49
2022-12-16T19:36:56.738Z,49.36
2022-12-16T19:42:18.305Z,49.39
2022-12-16T19:47:38.707Z,49.46
2022-12-16T19:52:59.292Z,49.39
2022-12-16T19:58:19.784Z,49.32
2022-12-16T20:03:40.369Z,49.30
2022-12-16T20:09:05.220Z,49.24
2022-12-16T20:14:26.774Z,49.35
2022-12-16T20:19:47.313Z,49.62
2022-12-16T20:25:07.971Z,49.53
2022-12-16T20:30:29.628Z,49.78
2022-12-16T20:35:49.781Z,49.75
2022-12-16T20:41:17.948Z,50.04
2022-12-16T20:46:38.548Z,49.96
2022-12-16T20:51:59.045Z,49.96
2022-12-16T20:57:19.659Z,49.97
2022-12-16T21:02:40.338Z,49.93
2022-12-16T21:08:01.517Z,49.93
2022-12-16T21:13:33.718Z,50.15
2022-12-16T21:18:54.556Z,50.19
2022-12-16T21:24:17.018Z,50.15
2022-12-16T21:29:37.772Z,49.95
2022-12-16T21:34:58.158Z,50.04
2022-12-16T21:40:18.848Z,50.28
2022-12-16T21:45:39.160Z,50.28
2022-12-16T21:50:59.650Z,50.26
2022-12-16T21:56:20.035Z,50.31
2022-12-16T22:01:40.675Z,50.62
2022-12-16T22:07:01.317Z,50.57
2022-12-16T22:12:28.332Z,50.57
2022-12-16T22:23:30.347Z,50.97
2022-12-16T22:28:50.921Z,51.07
2022-12-16T22:34:12.627Z,51.03
2022-12-16T22:39:33.197Z,50.81
2022-12-16T22:44:53.885Z,50.92
2022-12-16T22:50:16.960Z,50.71
2022-12-16T22:55:37.569Z,50.71
2022-12-16T23:00:58.131Z,50.74
2022-12-16T23:06:18.728Z,50.80
2022-12-16T23:11:50.799Z,50.69
2022-12-16T23:17:12.736Z,50.78
2022-12-16T23:22:33.575Z,50.68
2022-12-16T23:27:54.081Z,50.67
2022-12-16T23:36:44.684Z,54.76
2022-12-16T23:42:05.201Z,51.03
2022-12-16T23:47:25.410Z,51.26
2022-12-16T23:52:45.904Z,51.04
2022-12-16T23:58:06.228Z,51.02
